Time;durP1;ratioP1;P1;durP2;ratioP2;P2;SDS_P1;SDS_P2;PMS_P1;PMS_P2;Temp;Humidity;BMP_temperature;BMP_pressure;BME280_temperature;BME280_humidity;BME280_pressure;Samples;Min_cycle;Max_cycle;Signal;HPM_P1;HPM_P2
2021/09/28 00:00:08;;;;;;;0.20;0.20;;;;;;;;;;4998426;28;20038;-81
2021/09/28 00:02:34;;;;;;;0.13;0.13;;;;;;;;;;4995531;28;20781;-80
2021/09/28 00:05:00;;;;;;;0.47;0.30;;;;;;;;;;5002195;28;20057;-81
2021/09/28 00:07:26;;;;;;;0.10;0.10;;;;;;;;;;5000904;28;20044;-81
2021/09/28 00:09:53;;;;;;;0.10;0.10;;;;;;;;;;4996560;28;20040;-81
2021/09/28 00:12:19;;;;;;;0.20;0.20;;;;;;;;;;4998302;28;20026;-81
2021/09/28 00:14:45;;;;;;;0.10;0.10;;;;;;;;;;5003473;28;20280;-81
2021/09/28 00:17:11;;;;;;;0.10;0.10;;;;;;;;;;4998885;28;20030;-80
2021/09/28 00:19:38;;;;;;;0.20;0.20;;;;;;;;;;5002470;28;20030;-81
2021/09/28 00:22:04;;;;;;;0.20;0.20;;;;;;;;;;5001903;28;20392;-82
2021/09/28 00:24:30;;;;;;;0.20;0.20;;;;;;;;;;4995201;28;20031;-82
2021/09/28 00:26:56;;;;;;;0.10;0.10;;;;;;;;;;4993379;28;20081;-81
2021/09/28 00:29:23;;;;;;;0.20;0.20;;;;;;;;;;5002474;28;20084;-82
2021/09/28 00:31:49;;;;;;;0.10;0.10;;;;;;;;;;4998234;28;20369;-81
2021/09/28 00:34:15;;;;;;;0.10;0.10;;;;;;;;;;5003029;28;20036;-81
2021/09/28 00:36:41;;;;;;;0.10;0.10;;;;;;;;;;4999468;28;20045;-81
2021/09/28 00:39:07;;;;;;;0.10;0.10;;;;;;;;;;4995036;28;20041;-82
2021/09/28 00:41:33;;;;;;;0.10;0.10;;;;;;;;;;5001192;28;20061;-82
2021/09/28 00:43:59;;;;;;;0.20;0.20;;;;;;;;;;5001067;28;20659;-82
2021/09/28 00:46:25;;;;;;;0.10;0.10;;;;;;;;;;5001165;28;20364;-81
2021/09/28 00:48:52;;;;;;;0.10;0.10;;;;;;;;;;5002703;28;20033;-81
2021/09/28 00:51:18;;;;;;;0.10;0.10;;;;;;;;;;5002069;28;20651;-81
2021/09/28 00:53:45;;;;;;;0.10;0.10;;;;;;;;;;4996514;28;20512;-81
2021/09/28 00:56:14;;;;;;;0.10;0.10;;;;;;;;;;5016310;28;20037;-83
2021/09/28 00:58:40;;;;;;;0.10;0.10;;;;;;;;;;5002230;28;20543;-84
2021/09/28 01:01:06;;;;;;;0.55;0.43;;;;;;;;;;5001646;28;20030;-84
2021/09/28 01:03:33;;;;;;;1.10;1.02;;;;;;;;;;4993930;28;20092;-84
2021/09/28 01:05:59;;;;;;;0.00;0.00;;;;;;;;;;4993333;28;20836;-84
2021/09/28 01:08:26;;;;;;;0.10;0.10;;;;;;;;;;5004538;28;20048;-84
2021/09/28 01:10:52;;;;;;;0.10;0.10;;;;;;;;;;5000483;28;20037;-84
2021/09/28 01:13:18;;;;;;;0.20;0.20;;;;;;;;;;4999471;28;20534;-84
2021/09/28 01:16:08;;;;;;;0.77;0.67;;;;;;;;;;5001828;28;20390;-84
2021/09/28 01:18:34;;;;;;;0.10;0.10;;;;;;;;;;4984543;28;20042;-84
2021/09/28 01:21:01;;;;;;;0.10;0.10;;;;;;;;;;5002444;28;20026;-86
2021/09/28 01:23:27;;;;;;;0.28;0.28;;;;;;;;;;4999058;28;20037;-82
2021/09/28 01:25:53;;;;;;;0.10;0.10;;;;;;;;;;4999000;28;20460;-83
2021/09/28 01:28:19;;;;;;;0.10;0.10;;;;;;;;;;4997623;28;20065;-82
2021/09/28 01:30:45;;;;;;;0.00;0.00;;;;;;;;;;4997342;28;20025;-82
2021/09/28 01:33:11;;;;;;;0.10;0.10;;;;;;;;;;4996216;28;20037;-82
2021/09/28 01:35:39;;;;;;;0.10;0.10;;;;;;;;;;5003269;28;20492;-83
2021/09/28 01:38:06;;;;;;;0.73;0.68;;;;;;;;;;5004953;28;20038;-83
2021/09/28 01:40:33;;;;;;;0.10;0.10;;;;;;;;;;4988701;28;20492;-83
2021/09/28 01:43:09;;;;;;;0.10;0.10;;;;;;;;;;5000045;28;20949;-83
2021/09/28 01:45:35;;;;;;;0.50;0.50;;;;;;;;;;4996630;28;20484;-83
2021/09/28 01:48:01;;;;;;;0.10;0.10;;;;;;;;;;5000102;28;20038;-83
2021/09/28 01:50:27;;;;;;;0.37;0.37;;;;;;;;;;5007170;28;20037;-83
2021/09/28 01:52:53;;;;;;;0.47;0.23;;;;;;;;;;5002886;28;20092;-83
2021/09/28 01:55:19;;;;;;;0.10;0.10;;;;;;;;;;5002845;28;20367;-82
2021/09/28 01:57:46;;;;;;;0.20;0.20;;;;;;;;;;4996333;28;20037;-83
2021/09/28 02:00:12;;;;;;;0.47;0.43;;;;;;;;;;4994215;28;20037;-83
2021/09/28 02:02:38;;;;;;;0.10;0.10;;;;;;;;;;4997958;28;20030;-82
2021/09/28 02:05:05;;;;;;;0.10;0.10;;;;;;;;;;5004295;28;20045;-83
2021/09/28 02:07:31;;;;;;;0.30;0.30;;;;;;;;;;5004087;28;20026;-83
2021/09/28 02:09:57;;;;;;;0.10;0.10;;;;;;;;;;5003807;28;20040;-84
2021/09/28 02:12:23;;;;;;;0.10;0.10;;;;;;;;;;4996214;28;20037;-84
2021/09/28 02:14:49;;;;;;;0.10;0.10;;;;;;;;;;4992659;28;20030;-85
2021/09/28 02:17:15;;;;;;;0.08;0.08;;;;;;;;;;4994997;28;20034;-83
2021/09/28 02:19:41;;;;;;;2.10;0.93;;;;;;;;;;4991916;28;20014;-83
2021/09/28 02:22:07;;;;;;;0.40;0.40;;;;;;;;;;4992755;28;20747;-84
2021/09/28 02:24:33;;;;;;;0.30;0.30;;;;;;;;;;4992718;28;20041;-83
2021/09/28 02:26:59;;;;;;;0.30;0.30;;;;;;;;;;4995272;28;20240;-83
2021/09/28 02:29:25;;;;;;;0.10;0.10;;;;;;;;;;4993293;28;20356;-83
2021/09/28 02:31:51;;;;;;;0.10;0.10;;;;;;;;;;5000712;28;20484;-83
2021/09/28 02:34:17;;;;;;;0.10;0.10;;;;;;;;;;4999996;28;20156;-85
2021/09/28 02:36:43;;;;;;;0.20;0.20;;;;;;;;;;5003954;28;20050;-86
2021/09/28 02:39:09;;;;;;;18.23;0.87;;;;;;;;;;5004395;28;20045;-86
2021/09/28 02:41:36;;;;;;;0.93;0.93;;;;;;;;;;5004923;28;20106;-86
2021/09/28 02:44:02;;;;;;;0.15;0.15;;;;;;;;;;4996985;28;20042;-84
2021/09/28 02:46:29;;;;;;;0.40;0.40;;;;;;;;;;4992387;28;20405;-83
2021/09/28 02:48:55;;;;;;;0.10;0.10;;;;;;;;;;4993072;28;20052;-83
2021/09/28 02:51:21;;;;;;;0.20;0.20;;;;;;;;;;4990795;28;20034;-83
2021/09/28 02:53:47;;;;;;;1.05;0.68;;;;;;;;;;4991387;28;20372;-83
2021/09/28 02:56:13;;;;;;;0.10;0.10;;;;;;;;;;4999820;28;20560;-83
2021/09/28 02:58:39;;;;;;;0.10;0.10;;;;;;;;;;4998230;28;20049;-83
2021/09/28 03:01:05;;;;;;;0.10;0.10;;;;;;;;;;4993063;28;20034;-83
2021/09/28 03:03:32;;;;;;;0.10;0.10;;;;;;;;;;4991562;28;20084;-83
2021/09/28 03:05:58;;;;;;;0.10;0.10;;;;;;;;;;5001657;28;20519;-82
2021/09/28 03:08:24;;;;;;;0.20;0.20;;;;;;;;;;5001484;28;20288;-82
2021/09/28 03:10:50;;;;;;;0.10;0.10;;;;;;;;;;5002926;28;20065;-82
2021/09/28 03:13:16;;;;;;;0.10;0.10;;;;;;;;;;5002093;28;20316;-83
2021/09/28 03:15:42;;;;;;;0.25;0.25;;;;;;;;;;4980595;28;20041;-83
2021/09/28 03:18:08;;;;;;;0.10;0.10;;;;;;;;;;4996549;28;20088;-83
2021/09/28 03:20:35;;;;;;;0.10;0.10;;;;;;;;;;5004988;28;20603;-81
2021/09/28 03:23:01;;;;;;;0.10;0.10;;;;;;;;;;4993593;28;20679;-82
2021/09/28 03:25:27;;;;;;;0.10;0.10;;;;;;;;;;4996541;28;20030;-81
2021/09/28 03:27:53;;;;;;;7.00;1.30;;;;;;;;;;5001836;28;20139;-80
2021/09/28 03:30:19;;;;;;;2.63;0.87;;;;;;;;;;5000780;28;20314;-81
2021/09/28 03:32:46;;;;;;;0.10;0.10;;;;;;;;;;5003513;28;20116;-81
2021/09/28 03:35:12;;;;;;;0.47;0.47;;;;;;;;;;4999161;28;20133;-82
2021/09/28 03:37:39;;;;;;;0.30;0.30;;;;;;;;;;4997487;28;20037;-82
2021/09/28 03:40:07;;;;;;;2.42;1.27;;;;;;;;;;4993671;28;20058;-82
2021/09/28 03:42:33;;;;;;;0.10;0.10;;;;;;;;;;5001010;28;20040;-83
2021/09/28 03:44:59;;;;;;;0.10;0.10;;;;;;;;;;5002123;28;20104;-83
2021/09/28 03:47:25;;;;;;;0.10;0.10;;;;;;;;;;5002340;28;20045;-84
2021/09/28 03:49:51;;;;;;;0.13;0.13;;;;;;;;;;5001747;28;20029;-82
2021/09/28 03:52:17;;;;;;;0.10;0.10;;;;;;;;;;5000599;28;20026;-82
2021/09/28 03:54:44;;;;;;;0.20;0.20;;;;;;;;;;5001870;28;20037;-82
2021/09/28 03:57:10;;;;;;;0.20;0.20;;;;;;;;;;4998702;28;20804;-83
2021/09/28 03:59:37;;;;;;;0.10;0.10;;;;;;;;;;5004194;28;20029;-84
2021/09/28 04:02:03;;;;;;;0.30;0.30;;;;;;;;;;4998105;28;20053;-83
2021/09/28 04:04:29;;;;;;;0.10;0.10;;;;;;;;;;4998826;28;20121;-83
2021/09/28 04:06:55;;;;;;;0.10;0.10;;;;;;;;;;5003441;28;20082;-82
2021/09/28 04:09:21;;;;;;;0.10;0.10;;;;;;;;;;4999814;28;20049;-82
2021/09/28 04:11:47;;;;;;;0.30;0.30;;;;;;;;;;5003823;28;20034;-83
2021/09/28 04:14:16;;;;;;;0.10;0.10;;;;;;;;;;5001947;28;20064;-83
2021/09/28 04:16:42;;;;;;;0.10;0.10;;;;;;;;;;5001700;28;20034;-83
2021/09/28 04:19:08;;;;;;;0.10;0.10;;;;;;;;;;4994001;28;20643;-83
2021/09/28 04:21:34;;;;;;;0.20;0.20;;;;;;;;;;5001639;28;20117;-83
2021/09/28 04:24:00;;;;;;;0.10;0.10;;;;;;;;;;4988226;28;20040;-82
2021/09/28 04:26:26;;;;;;;0.10;0.10;;;;;;;;;;5004238;28;20054;-83
2021/09/28 04:28:52;;;;;;;0.17;0.17;;;;;;;;;;5003193;28;20026;-82
2021/09/28 04:31:18;;;;;;;0.10;0.10;;;;;;;;;;5001254;28;20026;-81
2021/09/28 04:33:45;;;;;;;0.10;0.10;;;;;;;;;;4991139;28;20101;-82
2021/09/28 04:36:11;;;;;;;0.10;0.10;;;;;;;;;;4996190;28;20030;-82
2021/09/28 04:38:37;;;;;;;0.10;0.10;;;;;;;;;;5003432;28;20034;-82
2021/09/28 04:41:03;;;;;;;0.13;0.13;;;;;;;;;;5002439;28;20029;-83
2021/09/28 04:43:29;;;;;;;0.32;0.32;;;;;;;;;;5000993;28;20603;-83
2021/09/28 04:45:56;;;;;;;0.10;0.10;;;;;;;;;;4994835;28;20037;-84
2021/09/28 04:48:22;;;;;;;0.20;0.20;;;;;;;;;;5000929;28;20291;-85
2021/09/28 04:50:49;;;;;;;0.10;0.10;;;;;;;;;;4996383;28;20030;-83
2021/09/28 04:53:16;;;;;;;0.10;0.10;;;;;;;;;;5002397;28;20457;-83
2021/09/28 04:55:42;;;;;;;0.10;0.10;;;;;;;;;;5001505;28;20409;-82
2021/09/28 04:58:08;;;;;;;0.10;0.10;;;;;;;;;;4996091;28;20342;-83
2021/09/28 05:00:34;;;;;;;0.10;0.10;;;;;;;;;;4992700;28;20022;-85
2021/09/28 05:03:00;;;;;;;0.10;0.10;;;;;;;;;;4994408;28;20072;-84
2021/09/28 05:05:26;;;;;;;0.10;0.10;;;;;;;;;;5006458;28;20064;-84
2021/09/28 05:07:52;;;;;;;0.10;0.10;;;;;;;;;;5005900;28;20026;-82
2021/09/28 05:10:18;;;;;;;1.00;0.93;;;;;;;;;;5004970;28;20440;-82
2021/09/28 05:12:44;;;;;;;0.10;0.10;;;;;;;;;;5006410;28;20037;-83
2021/09/28 05:15:11;;;;;;;0.10;0.10;;;;;;;;;;5002838;28;20034;-83
2021/09/28 05:17:37;;;;;;;0.10;0.10;;;;;;;;;;5004880;28;20038;-83
2021/09/28 05:20:04;;;;;;;0.07;0.07;;;;;;;;;;5004289;28;20485;-81
2021/09/28 05:22:30;;;;;;;0.10;0.10;;;;;;;;;;5004572;28;20030;-82
2021/09/28 05:24:56;;;;;;;0.10;0.10;;;;;;;;;;5000438;28;20026;-80
2021/09/28 05:27:22;;;;;;;0.10;0.10;;;;;;;;;;5003636;28;20046;-88
2021/09/28 05:29:48;;;;;;;0.47;0.47;;;;;;;;;;4995220;28;20088;-88
2021/09/28 05:32:14;;;;;;;0.10;0.10;;;;;;;;;;4999094;28;20064;-91
2021/09/28 05:34:40;;;;;;;0.10;0.10;;;;;;;;;;5017275;28;20050;-89
2021/09/28 05:37:07;;;;;;;0.17;0.17;;;;;;;;;;5002249;28;20096;-89
2021/09/28 05:39:33;;;;;;;0.10;0.10;;;;;;;;;;4998333;28;20068;-88
2021/09/28 05:41:59;;;;;;;0.10;0.10;;;;;;;;;;5000440;28;20517;-90
2021/09/28 05:44:25;;;;;;;0.10;0.10;;;;;;;;;;5020809;28;20108;-93
2021/09/28 05:46:51;;;;;;;0.45;0.43;;;;;;;;;;5008214;28;20040;-91
2021/09/28 05:49:17;;;;;;;0.10;0.10;;;;;;;;;;5009325;28;20113;-93
2021/09/28 05:51:50;;;;;;;0.10;0.10;;;;;;;;;;5008043;28;20116;-94
2021/09/28 05:54:18;;;;;;;0.20;0.20;;;;;;;;;;4991374;28;20073;-93
2021/09/28 05:56:45;;;;;;;0.10;0.10;;;;;;;;;;5011125;28;20033;-95
2021/09/28 05:59:11;;;;;;;0.35;0.35;;;;;;;;;;5007266;28;20254;-94
2021/09/28 06:01:37;;;;;;;0.10;0.10;;;;;;;;;;5006056;28;20527;-93
2021/09/28 06:04:03;;;;;;;1.97;1.17;;;;;;;;;;5008366;28;20076;-84
2021/09/28 06:06:29;;;;;;;0.13;0.13;;;;;;;;;;5006966;28;20041;-91
2021/09/28 06:08:55;;;;;;;0.10;0.10;;;;;;;;;;5006096;28;20034;-89
2021/09/28 06:11:21;;;;;;;0.10;0.10;;;;;;;;;;5004210;28;20026;-94
2021/09/28 06:13:48;;;;;;;0.10;0.10;;;;;;;;;;5008324;28;20080;-91
2021/09/28 06:16:14;;;;;;;0.30;0.17;;;;;;;;;;5006736;28;20038;-93
2021/09/28 06:18:40;;;;;;;0.00;0.00;;;;;;;;;;5005280;28;20038;-93
2021/09/28 06:21:06;;;;;;;0.10;0.10;;;;;;;;;;5004633;28;20120;-90
2021/09/28 06:23:32;;;;;;;0.10;0.10;;;;;;;;;;5006384;28;20073;-93
2021/09/28 06:25:58;;;;;;;0.10;0.10;;;;;;;;;;5005462;28;20029;-88
2021/09/28 06:28:24;;;;;;;0.40;0.40;;;;;;;;;;5005655;28;20382;-83
2021/09/28 06:30:50;;;;;;;0.10;0.10;;;;;;;;;;5004579;28;20026;-84
2021/09/28 06:33:16;;;;;;;0.10;0.10;;;;;;;;;;5004000;28;20030;-84
2021/09/28 06:35:42;;;;;;;0.10;0.10;;;;;;;;;;5005499;28;20034;-83
2021/09/28 06:38:09;;;;;;;0.10;0.10;;;;;;;;;;5004992;28;20197;-83
2021/09/28 06:40:35;;;;;;;;;;;;;;;;;;4998922;28;21742;-83
2021/09/28 06:43:01;;;;;;;0.10;0.10;;;;;;;;;;5002194;28;19929;-83
2021/09/28 06:45:27;;;;;;;0.10;0.10;;;;;;;;;;5000503;28;20030;-83
2021/09/28 06:47:53;;;;;;;0.10;0.10;;;;;;;;;;5004889;28;20283;-83
2021/09/28 06:50:19;;;;;;;0.10;0.10;;;;;;;;;;5001717;28;20030;-81
2021/09/28 06:52:46;;;;;;;0.10;0.10;;;;;;;;;;5001966;28;20289;-83
2021/09/28 06:55:12;;;;;;;0.10;0.10;;;;;;;;;;4999915;28;20766;-85
2021/09/28 06:57:38;;;;;;;0.20;0.20;;;;;;;;;;5003210;28;20143;-83
2021/09/28 07:00:05;;;;;;;0.10;0.10;;;;;;;;;;5003711;28;20445;-83
2021/09/28 07:02:31;;;;;;;0.05;0.05;;;;;;;;;;5006159;28;20068;-82
2021/09/28 07:04:57;;;;;;;0.10;0.10;;;;;;;;;;5003002;28;20069;-83
2021/09/28 07:07:27;;;;;;;0.20;0.20;;;;;;;;;;4998709;28;20076;-83
2021/09/28 07:09:54;;;;;;;0.10;0.10;;;;;;;;;;5004036;28;20034;-82
2021/09/28 07:12:20;;;;;;;0.13;0.13;;;;;;;;;;5002050;28;20400;-82
2021/09/28 07:14:46;;;;;;;0.10;0.10;;;;;;;;;;5005627;28;20201;-82
2021/09/28 07:17:12;;;;;;;0.10;0.10;;;;;;;;;;5019153;28;20113;-83
2021/09/28 07:19:39;;;;;;;0.00;0.00;;;;;;;;;;5003645;28;20798;-82
2021/09/28 07:22:05;;;;;;;0.25;0.25;;;;;;;;;;5003465;28;20755;-82
2021/09/28 07:24:31;;;;;;;0.00;0.00;;;;;;;;;;5002131;28;20033;-83
2021/09/28 07:26:57;;;;;;;0.10;0.10;;;;;;;;;;5003329;28;20053;-82
2021/09/28 07:29:23;;;;;;;0.10;0.10;;;;;;;;;;5005344;28;20049;-81
2021/09/28 07:31:49;;;;;;;0.10;0.10;;;;;;;;;;5002978;28;20375;-81
2021/09/28 07:34:15;;;;;;;0.10;0.10;;;;;;;;;;5002893;28;20030;-81
2021/09/28 07:36:41;;;;;;;0.40;0.40;;;;;;;;;;5002958;28;20025;-81
2021/09/28 07:39:07;;;;;;;0.13;0.13;;;;;;;;;;5001141;28;20125;-81
2021/09/28 07:41:33;;;;;;;0.00;0.00;;;;;;;;;;5005407;28;20277;-81
2021/09/28 07:44:00;;;;;;;0.10;0.10;;;;;;;;;;5002581;28;20084;-81
2021/09/28 07:46:26;;;;;;;0.00;0.00;;;;;;;;;;5003296;28;20302;-81
2021/09/28 07:48:52;;;;;;;0.10;0.10;;;;;;;;;;5002508;28;20026;-81
2021/09/28 07:51:18;;;;;;;0.10;0.10;;;;;;;;;;5002432;28;20089;-82
2021/09/28 07:53:49;;;;;;;0.00;0.00;;;;;;;;;;5005253;28;20698;-81
2021/09/28 07:56:15;;;;;;;0.10;0.10;;;;;;;;;;5002186;28;20048;-81
2021/09/28 07:58:41;;;;;;;0.10;0.10;;;;;;;;;;5003703;28;20424;-81
2021/09/28 08:01:07;;;;;;;0.17;0.17;;;;;;;;;;5002608;28;20036;-81
2021/09/28 08:03:33;;;;;;;0.10;0.10;;;;;;;;;;5002089;28;20112;-81
2021/09/28 08:05:59;;;;;;;0.98;0.63;;;;;;;;;;5002434;28;20029;-81
2021/09/28 08:08:26;;;;;;;0.20;0.20;;;;;;;;;;5003290;28;20458;-81
2021/09/28 08:10:52;;;;;;;0.10;0.10;;;;;;;;;;5002125;28;20054;-82
2021/09/28 08:13:18;;;;;;;;;;;;;;;;;;5002586;28;20285;-81
2021/09/28 08:15:45;;;;;;;0.00;0.00;;;;;;;;;;5002526;28;20584;-81
2021/09/28 08:18:11;;;;;;;0.20;0.20;;;;;;;;;;5002052;28;20042;-81
2021/09/28 08:20:37;;;;;;;0.20;0.20;;;;;;;;;;5004953;28;21007;-82
2021/09/28 08:23:03;;;;;;;0.10;0.10;;;;;;;;;;5004397;28;20052;-81
2021/09/28 08:29:09;;;;;;;0.00;0.00;;;;;;;;;;5001305;28;20076;-81
2021/09/28 08:31:07;;;;;;;0.10;0.10;;;;;;;;;;5002660;28;20710;-81
2021/09/28 08:33:34;;;;;;;0.00;0.00;;;;;;;;;;5003166;28;20056;-81
2021/09/28 08:35:59;;;;;;;;;;;;;;;;;;5003263;28;20034;-80
2021/09/28 08:38:28;;;;;;;0.15;0.15;;;;;;;;;;5004435;28;19963;-81
2021/09/28 08:40:54;;;;;;;0.10;0.10;;;;;;;;;;5004379;28;20045;-81
2021/09/28 08:43:20;;;;;;;0.10;0.10;;;;;;;;;;5006439;28;20675;-81
2021/09/28 08:45:47;;;;;;;0.10;0.10;;;;;;;;;;5007899;28;20452;-80
2021/09/28 08:48:17;;;;;;;0.22;0.22;;;;;;;;;;5006341;28;20036;-82
2021/09/28 08:50:47;;;;;;;0.13;0.13;;;;;;;;;;5005327;28;20021;-82
2021/09/28 08:53:17;;;;;;;0.30;0.30;;;;;;;;;;5007644;28;20045;-81
2021/09/28 08:55:43;;;;;;;0.00;0.00;;;;;;;;;;5006416;28;20041;-81
2021/09/28 08:58:14;;;;;;;0.03;0.03;;;;;;;;;;5003997;28;20440;-81
2021/09/28 09:00:40;;;;;;;0.00;0.00;;;;;;;;;;5006336;28;20145;-81
2021/09/28 09:03:06;;;;;;;0.00;0.00;;;;;;;;;;5006618;28;20558;-81
2021/09/28 09:05:33;;;;;;;0.33;0.33;;;;;;;;;;5008785;28;21038;-81
2021/09/28 09:08:00;;;;;;;0.20;0.20;;;;;;;;;;5005933;28;20041;-83
2021/09/28 09:10:31;;;;;;;0.00;0.00;;;;;;;;;;5003974;28;20065;-83
2021/09/28 09:12:57;;;;;;;0.00;0.00;;;;;;;;;;5006178;28;20428;-83
2021/09/28 09:15:44;;;;;;;0.10;0.10;;;;;;;;;;5006009;28;20106;-82
2021/09/28 09:18:11;;;;;;;0.00;0.00;;;;;;;;;;5006475;28;20030;-83
2021/09/28 09:20:37;;;;;;;;;;;;;;;;;;5009135;28;20120;-83
2021/09/28 09:23:22;;;;;;;0.10;0.10;;;;;;;;;;5004646;28;19921;-83
2021/09/28 09:25:58;;;;;;;5.38;0.82;;;;;;;;;;5005632;28;20042;-83
2021/09/28 09:28:32;;;;;;;0.13;0.13;;;;;;;;;;5005649;28;20029;-82
2021/09/28 09:31:25;;;;;;;0.00;0.00;;;;;;;;;;5005540;28;20046;-82
2021/09/28 09:33:53;;;;;;;0.10;0.10;;;;;;;;;;5005366;28;20061;-82
2021/09/28 09:36:20;;;;;;;0.10;0.10;;;;;;;;;;5005593;28;20613;-82
2021/09/28 09:38:46;;;;;;;;;;;;;;;;;;5006822;28;20397;-83
2021/09/28 09:41:12;;;;;;;0.00;0.00;;;;;;;;;;5005806;28;19909;-83
2021/09/28 09:43:39;;;;;;;0.10;0.10;;;;;;;;;;5005423;28;20041;-83
2021/09/28 09:46:08;;;;;;;0.10;0.10;;;;;;;;;;5003045;28;20045;-83
2021/09/28 09:48:34;;;;;;;0.38;0.38;;;;;;;;;;5003134;28;20041;-82
2021/09/28 09:51:11;;;;;;;0.10;0.10;;;;;;;;;;5004486;28;20072;-82
2021/09/28 09:53:37;;;;;;;;;;;;;;;;;;5005602;28;20120;-81
2021/09/28 09:56:03;;;;;;;0.80;0.63;;;;;;;;;;5004757;28;20440;-81
2021/09/28 09:58:30;;;;;;;0.45;0.28;;;;;;;;;;5005104;28;20029;-81
2021/09/28 10:00:58;;;;;;;0.00;0.00;;;;;;;;;;5004431;28;20042;-81
2021/09/28 10:03:24;;;;;;;0.38;0.38;;;;;;;;;;5003492;28;20042;-81
2021/09/28 10:05:50;;;;;;;0.00;0.00;;;;;;;;;;5006277;28;20034;-81
2021/09/28 10:08:17;;;;;;;0.10;0.10;;;;;;;;;;5005404;28;20069;-81
2021/09/28 10:10:43;;;;;;;0.63;0.57;;;;;;;;;;5003486;28;20304;-81
2021/09/28 10:13:29;;;;;;;1.55;0.95;;;;;;;;;;5003989;28;20034;-81
2021/09/28 10:16:14;;;;;;;4.07;1.02;;;;;;;;;;5003958;28;20033;-81
2021/09/28 10:18:40;;;;;;;0.35;0.15;;;;;;;;;;5005133;28;20584;-81
2021/09/28 10:21:25;;;;;;;0.37;0.33;;;;;;;;;;5002910;28;20505;-81
2021/09/28 10:24:11;;;;;;;0.50;0.50;;;;;;;;;;5002461;28;20061;-81
2021/09/28 10:26:37;;;;;;;4.32;0.70;;;;;;;;;;5005655;28;20054;-81
2021/09/28 10:29:23;;;;;;;0.00;0.00;;;;;;;;;;5003927;28;20596;-81
2021/09/28 10:31:49;;;;;;;0.15;0.15;;;;;;;;;;5006324;28;20025;-81
2021/09/28 10:34:16;;;;;;;0.43;0.43;;;;;;;;;;5003716;28;20068;-81
2021/09/28 10:36:54;;;;;;;0.10;0.10;;;;;;;;;;5004228;28;20069;-81
2021/09/28 10:39:39;;;;;;;0.10;0.10;;;;;;;;;;4989875;28;20715;-81
2021/09/28 10:42:07;;;;;;;0.00;0.00;;;;;;;;;;5003510;28;20068;-81
2021/09/28 10:44:43;;;;;;;0.57;0.57;;;;;;;;;;5006518;28;20460;-81
2021/09/28 10:47:29;;;;;;;0.00;0.00;;;;;;;;;;5001491;28;20796;-81
2021/09/28 10:50:14;;;;;;;0.38;0.25;;;;;;;;;;5003546;28;20572;-81
2021/09/28 10:52:40;;;;;;;0.03;0.03;;;;;;;;;;5004943;28;20390;-81
2021/09/28 10:55:09;;;;;;;2.22;0.90;;;;;;;;;;5003684;28;20033;-81
2021/09/28 10:57:54;;;;;;;0.10;0.10;;;;;;;;;;5003750;28;20033;-83
2021/09/28 11:00:27;;;;;;;0.10;0.10;;;;;;;;;;4989118;28;20026;-81
2021/09/28 11:02:53;;;;;;;0.00;0.00;;;;;;;;;;5004603;28;20034;-82
2021/09/28 11:05:38;;;;;;;0.10;0.10;;;;;;;;;;5005500;28;20040;-82
2021/09/28 11:08:05;;;;;;;0.20;0.20;;;;;;;;;;5003390;28;20044;-82
2021/09/28 11:10:31;;;;;;;0.00;0.00;;;;;;;;;;5004213;28;20541;-82
2021/09/28 11:12:57;;;;;;;;;;;;;;;;;;5003662;28;20084;-82
2021/09/28 11:15:25;;;;;;;0.00;0.00;;;;;;;;;;5004203;28;19921;-82
2021/09/28 11:17:51;;;;;;;0.10;0.10;;;;;;;;;;5004918;28;20080;-82
2021/09/28 11:20:25;;;;;;;1.13;0.25;;;;;;;;;;5019634;28;20188;-82
2021/09/28 11:22:58;;;;;;;0.10;0.10;;;;;;;;;;5003066;28;20042;-82
2021/09/28 11:25:26;;;;;;;0.10;0.10;;;;;;;;;;5004672;28;20823;-82
2021/09/28 11:28:01;;;;;;;0.00;0.00;;;;;;;;;;5002978;28;20049;-82
2021/09/28 11:30:28;;;;;;;0.00;0.00;;;;;;;;;;5002802;28;20412;-82
2021/09/28 11:33:06;;;;;;;0.00;0.00;;;;;;;;;;5004006;28;20073;-82
2021/09/28 11:35:33;;;;;;;0.10;0.10;;;;;;;;;;5004280;28;20034;-83
2021/09/28 11:37:59;;;;;;;;;;;;;;;;;;5003154;28;20539;-82
2021/09/28 11:40:25;;;;;;;;;;;;;;;;;;5003533;28;19913;-82
2021/09/28 11:42:51;;;;;;;0.65;0.57;;;;;;;;;;5003080;28;20382;-82
2021/09/28 11:45:26;;;;;;;0.00;0.00;;;;;;;;;;5002198;28;20036;-82
2021/09/28 11:47:53;;;;;;;0.00;0.00;;;;;;;;;;5004639;28;20029;-82
2021/09/28 11:50:23;;;;;;;0.05;0.05;;;;;;;;;;5003877;28;20026;-82
2021/09/28 11:52:49;;;;;;;0.00;0.00;;;;;;;;;;5000436;28;20026;-82
2021/09/28 11:55:22;;;;;;;0.60;0.40;;;;;;;;;;5002985;28;20034;-82
2021/09/28 11:57:48;;;;;;;0.15;0.15;;;;;;;;;;5002630;28;20026;-82
2021/09/28 12:00:14;;;;;;;0.00;0.00;;;;;;;;;;5002773;28;20062;-82
2021/09/28 12:02:41;;;;;;;0.15;0.15;;;;;;;;;;5003696;28;20044;-82
2021/09/28 12:10:12;;;;;;;0.10;0.10;;;;;;;;;;5002633;28;20045;-82
2021/09/28 12:12:39;;;;;;;2.53;0.28;;;;;;;;;;5001951;28;20042;-83
2021/09/28 12:15:07;;;;;;;0.00;0.00;;;;;;;;;;5003462;28;20072;-82
2021/09/28 12:17:33;;;;;;;0.93;0.30;;;;;;;;;;5005085;28;20026;-82
2021/09/28 12:20:02;;;;;;;0.15;0.15;;;;;;;;;;5005605;28;20134;-82
2021/09/28 12:22:36;;;;;;;0.00;0.00;;;;;;;;;;5002473;28;20076;-82
2021/09/28 12:25:05;;;;;;;0.00;0.00;;;;;;;;;;5002677;28;20045;-82
2021/09/28 12:27:32;;;;;;;0.05;0.05;;;;;;;;;;5002611;28;20102;-82
2021/09/28 12:29:58;;;;;;;0.00;0.00;;;;;;;;;;5003427;28;20819;-82
2021/09/28 12:32:25;;;;;;;0.10;0.10;;;;;;;;;;5002421;28;20033;-82
2021/09/28 12:34:56;;;;;;;0.00;0.00;;;;;;;;;;5002965;28;20083;-82
2021/09/28 12:37:23;;;;;;;0.10;0.10;;;;;;;;;;5002759;28;20034;-81
2021/09/28 12:40:09;;;;;;;0.10;0.10;;;;;;;;;;5002628;28;20492;-82
2021/09/28 12:42:36;;;;;;;0.10;0.10;;;;;;;;;;4989163;28;20865;-83
2021/09/28 12:45:12;;;;;;;0.00;0.00;;;;;;;;;;5002583;28;20048;-81
2021/09/28 12:47:41;;;;;;;0.00;0.00;;;;;;;;;;5004004;28;20113;-82
2021/09/28 12:50:18;;;;;;;0.00;0.00;;;;;;;;;;5002252;28;20046;-81
2021/09/28 12:52:44;;;;;;;0.20;0.20;;;;;;;;;;5002586;28;20033;-81
2021/09/28 12:55:10;;;;;;;0.00;0.00;;;;;;;;;;5001974;28;20034;-82
2021/09/28 12:57:36;;;;;;;0.00;0.00;;;;;;;;;;5001236;28;20040;-81
2021/09/28 13:00:02;;;;;;;0.03;0.03;;;;;;;;;;5001245;28;20036;-82
2021/09/28 13:02:28;;;;;;;0.00;0.00;;;;;;;;;;5002746;28;20065;-82
2021/09/28 13:04:54;;;;;;;0.30;0.10;;;;;;;;;;5002199;28;20129;-82
2021/09/28 13:07:21;;;;;;;0.00;0.00;;;;;;;;;;5002361;28;20071;-82
2021/09/28 13:09:47;;;;;;;0.00;0.00;;;;;;;;;;5001897;28;20733;-82
2021/09/28 13:12:13;;;;;;;0.47;0.15;;;;;;;;;;5002337;28;20030;-82
2021/09/28 13:14:39;;;;;;;0.55;0.30;;;;;;;;;;5004268;28;20040;-82
2021/09/28 13:17:05;;;;;;;0.10;0.10;;;;;;;;;;5001587;28;20033;-82
2021/09/28 13:19:31;;;;;;;0.00;0.00;;;;;;;;;;5001642;28;20034;-82
2021/09/28 13:21:57;;;;;;;0.00;0.00;;;;;;;;;;5001840;28;21102;-81
2021/09/28 13:24:23;;;;;;;0.13;0.13;;;;;;;;;;5002927;28;20042;-82
2021/09/28 13:26:49;;;;;;;0.00;0.00;;;;;;;;;;5007188;28;20806;-81
2021/09/28 13:29:15;;;;;;;0.00;0.00;;;;;;;;;;5006461;28;20119;-81
2021/09/28 13:31:42;;;;;;;0.00;0.00;;;;;;;;;;5004895;28;20022;-82
2021/09/28 13:34:08;;;;;;;0.00;0.00;;;;;;;;;;5007353;28;20503;-83
2021/09/28 13:36:39;;;;;;;0.00;0.00;;;;;;;;;;5005639;28;20187;-82
2021/09/28 13:39:05;;;;;;;0.00;0.00;;;;;;;;;;5004950;28;20619;-83
2021/09/28 13:41:31;;;;;;;0.35;0.10;;;;;;;;;;5007615;28;20453;-83
2021/09/28 13:43:57;;;;;;;0.10;0.10;;;;;;;;;;5004672;28;20695;-83
2021/09/28 13:46:24;;;;;;;0.17;0.08;;;;;;;;;;5005254;28;20026;-82
2021/09/28 13:48:50;;;;;;;0.98;0.65;;;;;;;;;;5004904;28;20034;-82
2021/09/28 13:51:16;;;;;;;0.00;0.00;;;;;;;;;;4989505;28;20135;-82
2021/09/28 13:53:42;;;;;;;0.20;0.20;;;;;;;;;;5005657;28;20045;-82
2021/09/28 13:56:10;;;;;;;0.00;0.00;;;;;;;;;;5005819;28;20096;-82
2021/09/28 13:58:36;;;;;;;0.00;0.00;;;;;;;;;;5003712;28;20116;-83
2021/09/28 14:01:02;;;;;;;0.00;0.00;;;;;;;;;;5004199;28;20115;-82
2021/09/28 14:03:28;;;;;;;0.00;0.00;;;;;;;;;;5004345;28;20034;-83
2021/09/28 14:05:54;;;;;;;4.88;1.25;;;;;;;;;;5005858;28;20069;-82
2021/09/28 14:08:20;;;;;;;0.00;0.00;;;;;;;;;;5005862;28;20746;-82
2021/09/28 14:10:46;;;;;;;0.15;0.15;;;;;;;;;;5002246;28;20033;-82
2021/09/28 14:13:12;;;;;;;0.03;0.03;;;;;;;;;;5003889;28;20033;-82
2021/09/28 14:15:38;;;;;;;0.00;0.00;;;;;;;;;;5004764;28;20030;-82
2021/09/28 14:18:05;;;;;;;0.15;0.15;;;;;;;;;;5004207;28;20029;-82
2021/09/28 14:20:31;;;;;;;0.00;0.00;;;;;;;;;;5006731;28;20034;-82
2021/09/28 14:22:57;;;;;;;;;;;;;;;;;;5004373;28;20054;-82
2021/09/28 14:25:24;;;;;;;0.00;0.00;;;;;;;;;;5004724;28;19921;-82
2021/09/28 14:27:50;;;;;;;0.00;0.00;;;;;;;;;;5003878;28;20049;-82
2021/09/28 14:30:16;;;;;;;0.65;0.20;;;;;;;;;;4988591;28;20050;-81
2021/09/28 14:32:42;;;;;;;0.40;0.40;;;;;;;;;;5006377;28;20029;-82
2021/09/28 14:35:09;;;;;;;0.00;0.00;;;;;;;;;;5003686;28;20496;-82
2021/09/28 14:37:35;;;;;;;;;;;;;;;;;;5004751;28;20072;-82
2021/09/28 14:40:01;;;;;;;;;;;;;;;;;;5003386;28;20323;-82
2021/09/28 14:42:28;;;;;;;0.00;0.00;;;;;;;;;;5003716;28;20552;-82
2021/09/28 14:44:54;;;;;;;0.00;0.00;;;;;;;;;;5005376;28;20817;-83
2021/09/28 14:47:20;;;;;;;0.20;0.20;;;;;;;;;;5005183;28;20084;-83
2021/09/28 14:49:46;;;;;;;0.10;0.10;;;;;;;;;;5003654;28;20780;-83
2021/09/28 14:52:12;;;;;;;0.00;0.00;;;;;;;;;;5004044;28;20555;-83
2021/09/28 14:54:39;;;;;;;0.00;0.00;;;;;;;;;;5004029;28;20060;-83
2021/09/28 14:57:05;;;;;;;;;;;;;;;;;;5003753;28;20026;-83